sensor_id;sensor_type;location;lat;lon;timestamp;temperature;humidity
78438;SHT31;67736;51.978;5.656;2023-09-19T00:01:41;18.0;68.4
78438;SHT31;67736;51.978;5.656;2023-09-19T00:04:12;18.0;68.5
78438;SHT31;67736;51.978;5.656;2023-09-19T00:06:42;18.0;68.7
78438;SHT31;67736;51.978;5.656;2023-09-19T00:09:12;18.0;69.1
78438;SHT31;67736;51.978;5.656;2023-09-19T00:11:42;18.0;69.5
78438;SHT31;67736;51.978;5.656;2023-09-19T00:14:11;18.0;68.8
78438;SHT31;67736;51.978;5.656;2023-09-19T00:16:41;18.0;69.2
78438;SHT31;67736;51.978;5.656;2023-09-19T00:19:11;18.0;69.5
78438;SHT31;67736;51.978;5.656;2023-09-19T00:21:41;17.9;69.7
78438;SHT31;67736;51.978;5.656;2023-09-19T00:24:12;17.9;69.5
78438;SHT31;67736;51.978;5.656;2023-09-19T00:26:45;17.9;69.9
78438;SHT31;67736;51.978;5.656;2023-09-19T00:29:14;17.9;69.9
78438;SHT31;67736;51.978;5.656;2023-09-19T00:31:45;17.9;70.2
78438;SHT31;67736;51.978;5.656;2023-09-19T00:34:16;17.9;69.9
78438;SHT31;67736;51.978;5.656;2023-09-19T00:36:46;17.9;70.2
78438;SHT31;67736;51.978;5.656;2023-09-19T00:39:15;17.9;70.3
78438;SHT31;67736;51.978;5.656;2023-09-19T00:41:47;17.9;70.6
78438;SHT31;67736;51.978;5.656;2023-09-19T00:44:17;17.9;70.7
78438;SHT31;67736;51.978;5.656;2023-09-19T00:46:48;17.9;70.8
78438;SHT31;67736;51.978;5.656;2023-09-19T00:49:19;17.9;71.1
78438;SHT31;67736;51.978;5.656;2023-09-19T00:51:50;17.9;71.2
78438;SHT31;67736;51.978;5.656;2023-09-19T00:54:20;17.9;71.1
78438;SHT31;67736;51.978;5.656;2023-09-19T00:56:51;17.9;71.4
78438;SHT31;67736;51.978;5.656;2023-09-19T00:59:22;17.9;71.5
78438;SHT31;67736;51.978;5.656;2023-09-19T01:01:51;17.9;71.5
78438;SHT31;67736;51.978;5.656;2023-09-19T01:04:22;17.9;71.7
78438;SHT31;67736;51.978;5.656;2023-09-19T01:06:52;17.9;71.8
78438;SHT31;67736;51.978;5.656;2023-09-19T01:09:23;17.9;71.5
78438;SHT31;67736;51.978;5.656;2023-09-19T01:12:00;17.9;71.3
78438;SHT31;67736;51.978;5.656;2023-09-19T01:14:41;17.9;71.2
78438;SHT31;67736;51.978;5.656;2023-09-19T01:17:19;17.9;71.3
78438;SHT31;67736;51.978;5.656;2023-09-19T01:20:18;17.9;71.3
78438;SHT31;67736;51.978;5.656;2023-09-19T01:22:57;17.9;71.3
78438;SHT31;67736;51.978;5.656;2023-09-19T01:26:06;17.9;71.0
78438;SHT31;67736;51.978;5.656;2023-09-19T01:28:49;17.9;71.0
78438;SHT31;67736;51.978;5.656;2023-09-19T01:31:24;17.9;70.5
78438;SHT31;67736;51.978;5.656;2023-09-19T01:33:57;17.9;70.2
78438;SHT31;67736;51.978;5.656;2023-09-19T01:36:28;17.9;70.2
78438;SHT31;67736;51.978;5.656;2023-09-19T01:39:02;17.9;70.0
78438;SHT31;67736;51.978;5.656;2023-09-19T01:42:08;17.9;69.3
78438;SHT31;67736;51.978;5.656;2023-09-19T01:44:51;17.9;68.3
78438;SHT31;67736;51.978;5.656;2023-09-19T01:47:31;17.8;67.9
78438;SHT31;67736;51.978;5.656;2023-09-19T01:50:14;17.8;67.8
78438;SHT31;67736;51.978;5.656;2023-09-19T01:52:57;17.8;67.2
78438;SHT31;67736;51.978;5.656;2023-09-19T01:55:29;17.8;67.0
78438;SHT31;67736;51.978;5.656;2023-09-19T01:58:07;17.8;67.1
78438;SHT31;67736;51.978;5.656;2023-09-19T02:00:41;17.7;67.0
78438;SHT31;67736;51.978;5.656;2023-09-19T02:03:12;17.7;67.2
78438;SHT31;67736;51.978;5.656;2023-09-19T02:05:48;17.7;67.2
78438;SHT31;67736;51.978;5.656;2023-09-19T02:08:19;17.6;67.4
78438;SHT31;67736;51.978;5.656;2023-09-19T02:10:51;17.6;67.2
78438;SHT31;67736;51.978;5.656;2023-09-19T02:13:22;17.6;67.3
78438;SHT31;67736;51.978;5.656;2023-09-19T02:15:54;17.6;66.7
78438;SHT31;67736;51.978;5.656;2023-09-19T02:18:23;17.5;67.0
78438;SHT31;67736;51.978;5.656;2023-09-19T02:20:54;17.5;66.1
78438;SHT31;67736;51.978;5.656;2023-09-19T02:23:26;17.5;65.9
78438;SHT31;67736;51.978;5.656;2023-09-19T02:25:59;17.4;66.1
78438;SHT31;67736;51.978;5.656;2023-09-19T02:28:31;17.4;66.1
78438;SHT31;67736;51.978;5.656;2023-09-19T02:31:03;17.4;65.9
78438;SHT31;67736;51.978;5.656;2023-09-19T02:33:33;17.4;65.8
78438;SHT31;67736;51.978;5.656;2023-09-19T02:36:07;17.3;65.5
78438;SHT31;67736;51.978;5.656;2023-09-19T02:38:36;17.3;65.3
78438;SHT31;67736;51.978;5.656;2023-09-19T02:41:06;17.3;66.1
78438;SHT31;67736;51.978;5.656;2023-09-19T02:43:35;17.2;65.0
78438;SHT31;67736;51.978;5.656;2023-09-19T02:46:05;17.2;64.5
78438;SHT31;67736;51.978;5.656;2023-09-19T02:48:34;17.2;64.8
78438;SHT31;67736;51.978;5.656;2023-09-19T02:51:04;17.1;64.6
78438;SHT31;67736;51.978;5.656;2023-09-19T02:53:34;17.1;64.9
78438;SHT31;67736;51.978;5.656;2023-09-19T02:56:04;17.1;64.4
78438;SHT31;67736;51.978;5.656;2023-09-19T02:58:34;17.0;64.2
78438;SHT31;67736;51.978;5.656;2023-09-19T03:01:11;17.0;64.9
78438;SHT31;67736;51.978;5.656;2023-09-19T03:03:43;17.0;64.4
78438;SHT31;67736;51.978;5.656;2023-09-19T03:06:15;16.9;64.6
78438;SHT31;67736;51.978;5.656;2023-09-19T03:08:47;16.9;63.9
78438;SHT31;67736;51.978;5.656;2023-09-19T03:11:19;16.9;64.5
78438;SHT31;67736;51.978;5.656;2023-09-19T03:13:53;16.9;64.2
78438;SHT31;67736;51.978;5.656;2023-09-19T03:16:23;16.8;64.0
78438;SHT31;67736;51.978;5.656;2023-09-19T03:18:52;16.8;64.3
78438;SHT31;67736;51.978;5.656;2023-09-19T03:21:22;16.8;64.1
78438;SHT31;67736;51.978;5.656;2023-09-19T03:23:53;16.8;63.6
78438;SHT31;67736;51.978;5.656;2023-09-19T03:26:22;16.8;63.5
78438;SHT31;67736;51.978;5.656;2023-09-19T03:28:54;16.7;63.2
78438;SHT31;67736;51.978;5.656;2023-09-19T03:31:24;16.7;63.0
78438;SHT31;67736;51.978;5.656;2023-09-19T03:33:53;16.7;62.7
78438;SHT31;67736;51.978;5.656;2023-09-19T03:36:25;16.7;63.0
78438;SHT31;67736;51.978;5.656;2023-09-19T03:38:55;16.7;63.0
78438;SHT31;67736;51.978;5.656;2023-09-19T03:41:25;16.6;62.9
78438;SHT31;67736;51.978;5.656;2023-09-19T03:43:54;16.6;62.5
78438;SHT31;67736;51.978;5.656;2023-09-19T03:46:24;16.6;62.3
78438;SHT31;67736;51.978;5.656;2023-09-19T03:48:54;16.6;62.5
78438;SHT31;67736;51.978;5.656;2023-09-19T03:51:23;16.6;62.9
78438;SHT31;67736;51.978;5.656;2023-09-19T03:53:53;16.5;62.5
78438;SHT31;67736;51.978;5.656;2023-09-19T03:56:23;16.5;62.3
78438;SHT31;67736;51.978;5.656;2023-09-19T03:58:53;16.5;62.1
78438;SHT31;67736;51.978;5.656;2023-09-19T04:01:22;16.5;62.3
78438;SHT31;67736;51.978;5.656;2023-09-19T04:03:52;16.4;62.3
78438;SHT31;67736;51.978;5.656;2023-09-19T04:06:21;16.4;62.2
78438;SHT31;67736;51.978;5.656;2023-09-19T04:08:51;16.4;62.0
78438;SHT31;67736;51.978;5.656;2023-09-19T04:11:23;16.4;62.5
78438;SHT31;67736;51.978;5.656;2023-09-19T04:13:53;16.4;62.6
78438;SHT31;67736;51.978;5.656;2023-09-19T04:16:22;16.3;62.4
78438;SHT31;67736;51.978;5.656;2023-09-19T04:18:52;16.3;62.4
78438;SHT31;67736;51.978;5.656;2023-09-19T04:21:23;16.3;62.6
78438;SHT31;67736;51.978;5.656;2023-09-19T04:23:53;16.3;62.5
78438;SHT31;67736;51.978;5.656;2023-09-19T04:26:23;16.3;62.8
78438;SHT31;67736;51.978;5.656;2023-09-19T04:28:53;16.3;62.6
78438;SHT31;67736;51.978;5.656;2023-09-19T04:31:25;16.3;62.8
78438;SHT31;67736;51.978;5.656;2023-09-19T04:33:55;16.3;62.8
78438;SHT31;67736;51.978;5.656;2023-09-19T04:36:26;16.3;62.9
78438;SHT31;67736;51.978;5.656;2023-09-19T04:38:57;16.3;62.5
78438;SHT31;67736;51.978;5.656;2023-09-19T04:41:26;16.3;62.9
78438;SHT31;67736;51.978;5.656;2023-09-19T04:43:56;16.3;62.9
78438;SHT31;67736;51.978;5.656;2023-09-19T04:46:26;16.3;63.4
78438;SHT31;67736;51.978;5.656;2023-09-19T04:48:55;16.2;63.1
78438;SHT31;67736;51.978;5.656;2023-09-19T04:51:25;16.2;63.2
78438;SHT31;67736;51.978;5.656;2023-09-19T04:53:58;16.2;63.1
78438;SHT31;67736;51.978;5.656;2023-09-19T04:56:27;16.2;63.2
78438;SHT31;67736;51.978;5.656;2023-09-19T04:58:59;16.2;63.4
78438;SHT31;67736;51.978;5.656;2023-09-19T05:01:31;16.2;63.6
78438;SHT31;67736;51.978;5.656;2023-09-19T05:04:01;16.2;63.5
78438;SHT31;67736;51.978;5.656;2023-09-19T05:06:32;16.2;63.6
78438;SHT31;67736;51.978;5.656;2023-09-19T05:09:03;16.2;63.9
78438;SHT31;67736;51.978;5.656;2023-09-19T05:11:33;16.2;64.0
78438;SHT31;67736;51.978;5.656;2023-09-19T05:14:02;16.2;64.0
78438;SHT31;67736;51.978;5.656;2023-09-19T05:16:32;16.2;64.0
78438;SHT31;67736;51.978;5.656;2023-09-19T05:19:03;16.2;64.3
78438;SHT31;67736;51.978;5.656;2023-09-19T05:21:32;16.2;64.3
78438;SHT31;67736;51.978;5.656;2023-09-19T05:24:02;16.2;64.4
78438;SHT31;67736;51.978;5.656;2023-09-19T05:26:33;16.2;64.5
78438;SHT31;67736;51.978;5.656;2023-09-19T05:29:03;16.2;64.4
78438;SHT31;67736;51.978;5.656;2023-09-19T05:31:35;16.2;64.9
78438;SHT31;67736;51.978;5.656;2023-09-19T05:34:08;16.2;65.0
78438;SHT31;67736;51.978;5.656;2023-09-19T05:36:38;16.2;64.7
78438;SHT31;67736;51.978;5.656;2023-09-19T05:39:09;16.2;65.1
78438;SHT31;67736;51.978;5.656;2023-09-19T05:41:39;16.2;65.3
78438;SHT31;67736;51.978;5.656;2023-09-19T05:44:09;16.2;65.2
78438;SHT31;67736;51.978;5.656;2023-09-19T05:46:38;16.2;65.3
78438;SHT31;67736;51.978;5.656;2023-09-19T05:49:10;16.2;65.4
78438;SHT31;67736;51.978;5.656;2023-09-19T05:51:39;16.2;65.2
78438;SHT31;67736;51.978;5.656;2023-09-19T05:54:09;16.2;65.4
78438;SHT31;67736;51.978;5.656;2023-09-19T05:56:41;16.3;65.4
78438;SHT31;67736;51.978;5.656;2023-09-19T05:59:10;16.3;65.6
78438;SHT31;67736;51.978;5.656;2023-09-19T06:01:41;16.3;65.7
78438;SHT31;67736;51.978;5.656;2023-09-19T06:04:10;16.3;65.8
78438;SHT31;67736;51.978;5.656;2023-09-19T06:06:40;16.3;66.2
78438;SHT31;67736;51.978;5.656;2023-09-19T06:09:12;16.3;66.4
78438;SHT31;67736;51.978;5.656;2023-09-19T06:11:43;16.3;66.3
78438;SHT31;67736;51.978;5.656;2023-09-19T06:14:12;16.3;66.2
78438;SHT31;67736;51.978;5.656;2023-09-19T06:16:45;16.4;66.5
78438;SHT31;67736;51.978;5.656;2023-09-19T06:19:14;16.4;66.6
78438;SHT31;67736;51.978;5.656;2023-09-19T06:21:44;16.4;66.5
78438;SHT31;67736;51.978;5.656;2023-09-19T06:24:13;16.4;66.9
78438;SHT31;67736;51.978;5.656;2023-09-19T06:26:43;16.4;66.9
78438;SHT31;67736;51.978;5.656;2023-09-19T06:29:13;16.5;66.9
78438;SHT31;67736;51.978;5.656;2023-09-19T06:31:43;16.5;66.9
78438;SHT31;67736;51.978;5.656;2023-09-19T06:34:14;16.5;67.3
78438;SHT31;67736;51.978;5.656;2023-09-19T06:36:45;16.5;67.5
78438;SHT31;67736;51.978;5.656;2023-09-19T06:39:15;16.5;67.5
78438;SHT31;67736;51.978;5.656;2023-09-19T06:41:44;16.6;67.4
78438;SHT31;67736;51.978;5.656;2023-09-19T06:44:16;16.6;67.6
78438;SHT31;67736;51.978;5.656;2023-09-19T06:46:45;16.6;67.7
78438;SHT31;67736;51.978;5.656;2023-09-19T06:49:19;16.6;67.7
78438;SHT31;67736;51.978;5.656;2023-09-19T06:51:49;16.7;67.6
78438;SHT31;67736;51.978;5.656;2023-09-19T06:54:18;16.7;67.7
78438;SHT31;67736;51.978;5.656;2023-09-19T06:56:48;16.7;67.6
78438;SHT31;67736;51.978;5.656;2023-09-19T06:59:17;16.8;67.6
78438;SHT31;67736;51.978;5.656;2023-09-19T07:01:47;16.8;67.6
78438;SHT31;67736;51.978;5.656;2023-09-19T07:04:18;16.8;67.8
78438;SHT31;67736;51.978;5.656;2023-09-19T07:06:51;16.9;67.9
78438;SHT31;67736;51.978;5.656;2023-09-19T07:09:20;16.9;67.4
78438;SHT31;67736;51.978;5.656;2023-09-19T07:11:50;16.9;67.6
78438;SHT31;67736;51.978;5.656;2023-09-19T07:14:20;17.0;67.4
78438;SHT31;67736;51.978;5.656;2023-09-19T07:16:50;17.0;67.3
78438;SHT31;67736;51.978;5.656;2023-09-19T07:19:20;17.0;67.3
78438;SHT31;67736;51.978;5.656;2023-09-19T07:21:49;17.1;67.5
78438;SHT31;67736;51.978;5.656;2023-09-19T07:24:19;17.1;67.4
78438;SHT31;67736;51.978;5.656;2023-09-19T07:26:51;17.2;66.9
78438;SHT31;67736;51.978;5.656;2023-09-19T07:29:21;17.3;66.8
78438;SHT31;67736;51.978;5.656;2023-09-19T07:31:50;17.4;66.4
78438;SHT31;67736;51.978;5.656;2023-09-19T07:34:20;17.4;66.1
78438;SHT31;67736;51.978;5.656;2023-09-19T07:36:50;17.5;66.3
78438;SHT31;67736;51.978;5.656;2023-09-19T07:39:20;17.6;66.0
78438;SHT31;67736;51.978;5.656;2023-09-19T07:41:49;17.7;65.9
78438;SHT31;67736;51.978;5.656;2023-09-19T07:44:19;17.8;65.1
78438;SHT31;67736;51.978;5.656;2023-09-19T07:46:49;17.8;65.0
78438;SHT31;67736;51.978;5.656;2023-09-19T07:49:19;17.9;65.1
78438;SHT31;67736;51.978;5.656;2023-09-19T07:51:49;18.0;65.2
78438;SHT31;67736;51.978;5.656;2023-09-19T07:54:20;18.1;64.8
78438;SHT31;67736;51.978;5.656;2023-09-19T07:56:50;18.2;64.6
78438;SHT31;67736;51.978;5.656;2023-09-19T07:59:19;18.3;64.0
78438;SHT31;67736;51.978;5.656;2023-09-19T08:01:49;18.4;63.6
78438;SHT31;67736;51.978;5.656;2023-09-19T08:04:19;18.5;63.4
78438;SHT31;67736;51.978;5.656;2023-09-19T08:06:49;18.5;63.1
78438;SHT31;67736;51.978;5.656;2023-09-19T08:09:19;18.6;62.7
78438;SHT31;67736;51.978;5.656;2023-09-19T08:11:49;18.7;63.1
78438;SHT31;67736;51.978;5.656;2023-09-19T08:14:19;18.9;62.2
78438;SHT31;67736;51.978;5.656;2023-09-19T08:16:50;19.0;62.3
78438;SHT31;67736;51.978;5.656;2023-09-19T08:19:19;19.0;62.4
78438;SHT31;67736;51.978;5.656;2023-09-19T08:21:50;19.2;62.0
78438;SHT31;67736;51.978;5.656;2023-09-19T08:24:20;19.3;61.8
78438;SHT31;67736;51.978;5.656;2023-09-19T08:26:50;19.4;61.8
78438;SHT31;67736;51.978;5.656;2023-09-19T08:29:20;19.5;61.2
78438;SHT31;67736;51.978;5.656;2023-09-19T08:31:55;19.5;60.9
78438;SHT31;67736;51.978;5.656;2023-09-19T08:34:25;19.6;60.8
78438;SHT31;67736;51.978;5.656;2023-09-19T08:36:55;19.7;60.9
78438;SHT31;67736;51.978;5.656;2023-09-19T08:39:26;19.8;61.2
78438;SHT31;67736;51.978;5.656;2023-09-19T08:42:01;19.9;59.9
78438;SHT31;67736;51.978;5.656;2023-09-19T08:44:36;20.0;59.8
78438;SHT31;67736;51.978;5.656;2023-09-19T08:47:10;20.1;59.4
78438;SHT31;67736;51.978;5.656;2023-09-19T08:49:51;20.2;58.9
78438;SHT31;67736;51.978;5.656;2023-09-19T08:52:31;20.3;59.0
78438;SHT31;67736;51.978;5.656;2023-09-19T08:55:03;20.4;58.7
78438;SHT31;67736;51.978;5.656;2023-09-19T08:57:38;20.5;58.6
78438;SHT31;67736;51.978;5.656;2023-09-19T09:00:12;20.6;57.9
78438;SHT31;67736;51.978;5.656;2023-09-19T09:02:45;20.7;57.5
78438;SHT31;67736;51.978;5.656;2023-09-19T09:05:17;20.8;56.7
78438;SHT31;67736;51.978;5.656;2023-09-19T09:07:51;20.8;56.9
78438;SHT31;67736;51.978;5.656;2023-09-19T09:10:23;20.9;56.0
78438;SHT31;67736;51.978;5.656;2023-09-19T09:12:55;21.0;56.2
78438;SHT31;67736;51.978;5.656;2023-09-19T09:15:34;21.1;55.5
78438;SHT31;67736;51.978;5.656;2023-09-19T09:18:05;21.1;54.6
78438;SHT31;67736;51.978;5.656;2023-09-19T09:20:34;21.2;53.9
78438;SHT31;67736;51.978;5.656;2023-09-19T09:23:04;21.2;54.0
78438;SHT31;67736;51.978;5.656;2023-09-19T09:25:51;21.3;52.7
78438;SHT31;67736;51.978;5.656;2023-09-19T09:28:25;21.3;52.6
78438;SHT31;67736;51.978;5.656;2023-09-19T09:30:55;21.4;52.8
78438;SHT31;67736;51.978;5.656;2023-09-19T09:33:26;21.4;53.4
78438;SHT31;67736;51.978;5.656;2023-09-19T09:35:58;21.5;53.3
78438;SHT31;67736;51.978;5.656;2023-09-19T09:38:44;21.5;53.1
78438;SHT31;67736;51.978;5.656;2023-09-19T09:41:17;21.6;52.4
78438;SHT31;67736;51.978;5.656;2023-09-19T09:43:51;21.7;52.3
78438;SHT31;67736;51.978;5.656;2023-09-19T09:46:21;21.7;52.4
78438;SHT31;67736;51.978;5.656;2023-09-19T09:49:10;21.8;52.3
78438;SHT31;67736;51.978;5.656;2023-09-19T09:51:49;21.9;52.3
78438;SHT31;67736;51.978;5.656;2023-09-19T09:54:27;21.9;52.3
78438;SHT31;67736;51.978;5.656;2023-09-19T09:57:04;21.9;52.1
78438;SHT31;67736;51.978;5.656;2023-09-19T09:59:49;22.0;52.5
78438;SHT31;67736;51.978;5.656;2023-09-19T10:02:24;22.0;53.7
78438;SHT31;67736;51.978;5.656;2023-09-19T10:04:57;22.1;53.0
78438;SHT31;67736;51.978;5.656;2023-09-19T10:07:41;22.1;52.5
78438;SHT31;67736;51.978;5.656;2023-09-19T10:10:32;22.2;52.7
78438;SHT31;67736;51.978;5.656;2023-09-19T10:13:13;22.3;51.9
78438;SHT31;67736;51.978;5.656;2023-09-19T10:15:50;22.3;52.5
78438;SHT31;67736;51.978;5.656;2023-09-19T10:18:23;22.4;51.8
78438;SHT31;67736;51.978;5.656;2023-09-19T10:20:54;22.5;51.6
78438;SHT31;67736;51.978;5.656;2023-09-19T10:23:28;22.5;51.8
78438;SHT31;67736;51.978;5.656;2023-09-19T10:26:01;22.5;51.2
78438;SHT31;67736;51.978;5.656;2023-09-19T10:28:34;22.6;50.6
78438;SHT31;67736;51.978;5.656;2023-09-19T10:31:08;22.6;51.7
78438;SHT31;67736;51.978;5.656;2023-09-19T10:33:43;22.6;51.3
78438;SHT31;67736;51.978;5.656;2023-09-19T10:36:13;22.6;50.8
78438;SHT31;67736;51.978;5.656;2023-09-19T10:38:45;22.6;51.4
78438;SHT31;67736;51.978;5.656;2023-09-19T10:41:17;22.6;51.2
78438;SHT31;67736;51.978;5.656;2023-09-19T10:43:51;22.6;50.0
78438;SHT31;67736;51.978;5.656;2023-09-19T10:46:22;22.6;50.7
78438;SHT31;67736;51.978;5.656;2023-09-19T10:48:53;22.6;50.9
78438;SHT31;67736;51.978;5.656;2023-09-19T10:51:29;22.6;52.0
78438;SHT31;67736;51.978;5.656;2023-09-19T10:54:08;22.6;50.6
78438;SHT31;67736;51.978;5.656;2023-09-19T10:56:43;22.6;51.0
78438;SHT31;67736;51.978;5.656;2023-09-19T10:59:18;22.6;50.5
78438;SHT31;67736;51.978;5.656;2023-09-19T11:01:49;22.6;50.7
78438;SHT31;67736;51.978;5.656;2023-09-19T11:04:29;22.6;50.8
78438;SHT31;67736;51.978;5.656;2023-09-19T11:07:04;22.6;50.8
78438;SHT31;67736;51.978;5.656;2023-09-19T11:09:46;22.6;50.8
78438;SHT31;67736;51.978;5.656;2023-09-19T11:12:49;22.6;51.7
78438;SHT31;67736;51.978;5.656;2023-09-19T11:21:56;22.7;50.3
78438;SHT31;67736;51.978;5.656;2023-09-19T11:24:30;22.8;50.6
78438;SHT31;67736;51.978;5.656;2023-09-19T11:27:13;22.8;49.9
78438;SHT31;67736;51.978;5.656;2023-09-19T11:29:45;22.8;50.1
78438;SHT31;67736;51.978;5.656;2023-09-19T11:32:16;22.8;50.7
78438;SHT31;67736;51.978;5.656;2023-09-19T11:34:50;22.8;50.3
78438;SHT31;67736;51.978;5.656;2023-09-19T11:38:01;22.8;50.5
78438;SHT31;67736;51.978;5.656;2023-09-19T11:41:13;22.8;49.5
78438;SHT31;67736;51.978;5.656;2023-09-19T11:43:48;22.8;50.9
78438;SHT31;67736;51.978;5.656;2023-09-19T11:46:18;22.8;49.4
78438;SHT31;67736;51.978;5.656;2023-09-19T11:48:50;22.8;48.8
78438;SHT31;67736;51.978;5.656;2023-09-19T11:51:21;22.9;48.6
78438;SHT31;67736;51.978;5.656;2023-09-19T11:53:55;22.9;49.0
78438;SHT31;67736;51.978;5.656;2023-09-19T11:56:28;22.9;49.4
78438;SHT31;67736;51.978;5.656;2023-09-19T11:58:59;22.9;49.6
78438;SHT31;67736;51.978;5.656;2023-09-19T12:01:30;22.9;49.3
78438;SHT31;67736;51.978;5.656;2023-09-19T12:04:02;22.9;49.4
78438;SHT31;67736;51.978;5.656;2023-09-19T12:06:32;22.9;49.7
78438;SHT31;67736;51.978;5.656;2023-09-19T12:09:04;22.9;50.1
78438;SHT31;67736;51.978;5.656;2023-09-19T12:11:42;23.0;49.8
78438;SHT31;67736;51.978;5.656;2023-09-19T12:14:23;23.0;48.7
78438;SHT31;67736;51.978;5.656;2023-09-19T12:16:56;23.0;48.9
78438;SHT31;67736;51.978;5.656;2023-09-19T12:19:27;23.0;48.7
78438;SHT31;67736;51.978;5.656;2023-09-19T12:21:59;23.0;48.9
78438;SHT31;67736;51.978;5.656;2023-09-19T12:24:32;23.0;49.0
78438;SHT31;67736;51.978;5.656;2023-09-19T12:27:07;23.0;47.6
78438;SHT31;67736;51.978;5.656;2023-09-19T12:29:47;23.0;48.6
78438;SHT31;67736;51.978;5.656;2023-09-19T12:32:35;23.0;48.5
78438;SHT31;67736;51.978;5.656;2023-09-19T12:35:08;23.0;48.4
78438;SHT31;67736;51.978;5.656;2023-09-19T12:37:43;23.0;48.3
78438;SHT31;67736;51.978;5.656;2023-09-19T12:40:16;23.0;48.1
78438;SHT31;67736;51.978;5.656;2023-09-19T12:42:50;23.0;48.8
78438;SHT31;67736;51.978;5.656;2023-09-19T12:45:21;22.9;48.3
78438;SHT31;67736;51.978;5.656;2023-09-19T12:48:22;22.9;48.9
78438;SHT31;67736;51.978;5.656;2023-09-19T12:51:05;22.9;48.9
78438;SHT31;67736;51.978;5.656;2023-09-19T12:53:36;22.8;48.9
78438;SHT31;67736;51.978;5.656;2023-09-19T12:56:08;22.8;49.3
78438;SHT31;67736;51.978;5.656;2023-09-19T12:59:03;22.7;49.6
78438;SHT31;67736;51.978;5.656;2023-09-19T13:01:34;22.7;50.4
78438;SHT31;67736;51.978;5.656;2023-09-19T13:04:15;22.6;50.1
78438;SHT31;67736;51.978;5.656;2023-09-19T13:06:48;22.6;50.5
78438;SHT31;67736;51.978;5.656;2023-09-19T13:09:20;22.5;50.8
78438;SHT31;67736;51.978;5.656;2023-09-19T13:11:50;22.5;50.5
78438;SHT31;67736;51.978;5.656;2023-09-19T13:14:23;22.5;50.8
78438;SHT31;67736;51.978;5.656;2023-09-19T13:16:56;22.4;50.7
78438;SHT31;67736;51.978;5.656;2023-09-19T13:19:39;22.4;50.9
78438;SHT31;67736;51.978;5.656;2023-09-19T13:22:38;22.3;51.0
78438;SHT31;67736;51.978;5.656;2023-09-19T13:25:12;22.3;51.2
78438;SHT31;67736;51.978;5.656;2023-09-19T13:27:46;22.2;51.1
78438;SHT31;67736;51.978;5.656;2023-09-19T13:30:19;22.2;51.5
78438;SHT31;67736;51.978;5.656;2023-09-19T13:32:49;22.2;51.6
78438;SHT31;67736;51.978;5.656;2023-09-19T13:35:20;22.1;51.7
78438;SHT31;67736;51.978;5.656;2023-09-19T13:37:49;22.1;51.6
78438;SHT31;67736;51.978;5.656;2023-09-19T13:40:19;22.1;51.8
78438;SHT31;67736;51.978;5.656;2023-09-19T13:42:48;22.0;52.2
78438;SHT31;67736;51.978;5.656;2023-09-19T13:45:21;22.0;52.4
78438;SHT31;67736;51.978;5.656;2023-09-19T13:47:54;22.0;52.5
78438;SHT31;67736;51.978;5.656;2023-09-19T13:50:23;22.0;52.7
78438;SHT31;67736;51.978;5.656;2023-09-19T13:52:54;22.0;53.1
78438;SHT31;67736;51.978;5.656;2023-09-19T13:55:25;22.0;52.9
78438;SHT31;67736;51.978;5.656;2023-09-19T13:57:54;22.0;52.6
78438;SHT31;67736;51.978;5.656;2023-09-19T14:00:26;22.0;53.0
78438;SHT31;67736;51.978;5.656;2023-09-19T14:02:56;22.0;52.9
78438;SHT31;67736;51.978;5.656;2023-09-19T14:05:28;22.0;53.6
78438;SHT31;67736;51.978;5.656;2023-09-19T14:07:57;22.0;53.7
78438;SHT31;67736;51.978;5.656;2023-09-19T14:10:28;22.0;53.2
78438;SHT31;67736;51.978;5.656;2023-09-19T14:12:59;22.1;53.0
78438;SHT31;67736;51.978;5.656;2023-09-19T14:15:29;22.1;52.9
78438;SHT31;67736;51.978;5.656;2023-09-19T14:17:59;22.1;52.6
78438;SHT31;67736;51.978;5.656;2023-09-19T14:20:29;22.1;52.4
78438;SHT31;67736;51.978;5.656;2023-09-19T14:22:59;22.1;53.1
78438;SHT31;67736;51.978;5.656;2023-09-19T14:25:29;22.2;52.8
78438;SHT31;67736;51.978;5.656;2023-09-19T14:27:59;22.2;52.6
78438;SHT31;67736;51.978;5.656;2023-09-19T14:30:29;22.2;53.3
78438;SHT31;67736;51.978;5.656;2023-09-19T14:32:58;22.2;53.1
78438;SHT31;67736;51.978;5.656;2023-09-19T14:35:28;22.3;52.2
78438;SHT31;67736;51.978;5.656;2023-09-19T14:37:57;22.3;52.3
78438;SHT31;67736;51.978;5.656;2023-09-19T14:40:27;22.3;52.1
78438;SHT31;67736;51.978;5.656;2023-09-19T14:42:56;22.3;52.3
78438;SHT31;67736;51.978;5.656;2023-09-19T14:45:26;22.3;52.5
78438;SHT31;67736;51.978;5.656;2023-09-19T14:47:55;22.3;51.7
78438;SHT31;67736;51.978;5.656;2023-09-19T14:50:25;22.3;51.8
78438;SHT31;67736;51.978;5.656;2023-09-19T14:52:57;22.3;52.2
78438;SHT31;67736;51.978;5.656;2023-09-19T14:55:29;22.3;51.5
78438;SHT31;67736;51.978;5.656;2023-09-19T14:58:01;22.3;52.0
78438;SHT31;67736;51.978;5.656;2023-09-19T15:00:31;22.3;52.1
78438;SHT31;67736;51.978;5.656;2023-09-19T15:03:02;22.3;52.2
78438;SHT31;67736;51.978;5.656;2023-09-19T15:05:32;22.2;52.2
78438;SHT31;67736;51.978;5.656;2023-09-19T15:08:02;22.2;52.4
78438;SHT31;67736;51.978;5.656;2023-09-19T15:10:31;22.2;52.4
78438;SHT31;67736;51.978;5.656;2023-09-19T15:13:01;22.2;52.7
78438;SHT31;67736;51.978;5.656;2023-09-19T15:15:33;22.2;53.0
78438;SHT31;67736;51.978;5.656;2023-09-19T15:18:02;22.1;53.0
78438;SHT31;67736;51.978;5.656;2023-09-19T15:20:32;22.1;53.2
78438;SHT31;67736;51.978;5.656;2023-09-19T15:23:02;22.1;53.1
78438;SHT31;67736;51.978;5.656;2023-09-19T15:25:31;22.1;53.0
78438;SHT31;67736;51.978;5.656;2023-09-19T15:28:02;22.1;52.8
78438;SHT31;67736;51.978;5.656;2023-09-19T15:30:38;22.0;53.0
78438;SHT31;67736;51.978;5.656;2023-09-19T15:33:07;22.0;53.0
78438;SHT31;67736;51.978;5.656;2023-09-19T15:35:37;22.0;52.9
78438;SHT31;67736;51.978;5.656;2023-09-19T15:38:07;22.0;53.5
78438;SHT31;67736;51.978;5.656;2023-09-19T15:40:47;21.9;53.3
78438;SHT31;67736;51.978;5.656;2023-09-19T15:43:17;21.9;53.6
78438;SHT31;67736;51.978;5.656;2023-09-19T15:45:49;21.9;53.6
78438;SHT31;67736;51.978;5.656;2023-09-19T15:48:19;21.9;53.4
78438;SHT31;67736;51.978;5.656;2023-09-19T15:50:49;21.9;53.3
78438;SHT31;67736;51.978;5.656;2023-09-19T15:53:18;21.8;53.5
78438;SHT31;67736;51.978;5.656;2023-09-19T15:55:48;21.8;53.6
78438;SHT31;67736;51.978;5.656;2023-09-19T15:58:17;21.8;53.7
78438;SHT31;67736;51.978;5.656;2023-09-19T16:00:47;21.7;53.8
78438;SHT31;67736;51.978;5.656;2023-09-19T16:03:17;21.7;54.2
78438;SHT31;67736;51.978;5.656;2023-09-19T16:05:49;21.6;54.1
78438;SHT31;67736;51.978;5.656;2023-09-19T16:08:20;21.6;54.4
78438;SHT31;67736;51.978;5.656;2023-09-19T16:10:52;21.6;54.7
78438;SHT31;67736;51.978;5.656;2023-09-19T16:13:21;21.6;55.0
78438;SHT31;67736;51.978;5.656;2023-09-19T16:15:51;21.6;54.9
78438;SHT31;67736;51.978;5.656;2023-09-19T16:18:20;21.6;55.2
78438;SHT31;67736;51.978;5.656;2023-09-19T16:20:50;21.5;55.6
78438;SHT31;67736;51.978;5.656;2023-09-19T16:23:21;21.5;56.2
78438;SHT31;67736;51.978;5.656;2023-09-19T16:26:02;21.5;56.1
78438;SHT31;67736;51.978;5.656;2023-09-19T16:28:35;21.5;55.5
78438;SHT31;67736;51.978;5.656;2023-09-19T16:31:07;21.4;55.4
78438;SHT31;67736;51.978;5.656;2023-09-19T16:33:39;21.4;55.7
78438;SHT31;67736;51.978;5.656;2023-09-19T16:36:11;21.4;55.3
78438;SHT31;67736;51.978;5.656;2023-09-19T16:38:42;21.4;55.4
78438;SHT31;67736;51.978;5.656;2023-09-19T16:41:12;21.3;55.6
78438;SHT31;67736;51.978;5.656;2023-09-19T16:43:43;21.3;55.6